createdAt,value
2018-08-24T00:01:49.307Z,17.99
2018-08-24T00:04:17.787Z,18.00
2018-08-24T00:06:46.272Z,18.07
2018-08-24T00:09:16.766Z,18.10
2018-08-24T00:11:45.200Z,18.17
2018-08-24T00:14:13.671Z,18.21
2018-08-24T00:16:42.699Z,18.32
2018-08-24T00:19:13.406Z,18.36
2018-08-24T00:21:41.968Z,18.49
2018-08-24T00:24:11.101Z,18.62
2018-08-24T00:26:39.639Z,18.71
2018-08-24T00:29:08.609Z,18.77
2018-08-24T00:31:37.703Z,18.76
2018-08-24T00:34:06.299Z,18.83
2018-08-24T00:36:34.756Z,18.85
2018-08-24T00:39:03.757Z,18.89
2018-08-24T00:41:32.219Z,18.92
2018-08-24T00:44:00.713Z,18.94
2018-08-24T00:46:29.200Z,18.97
2018-08-24T00:48:57.676Z,18.99
2018-08-24T00:51:26.242Z,19.00
2018-08-24T00:53:54.681Z,19.04
2018-08-24T00:56:23.282Z,19.06
2018-08-24T00:58:51.743Z,19.05
2018-08-24T01:01:20.272Z,19.04
2018-08-24T01:03:48.756Z,19.02
2018-08-24T01:06:21.361Z,19.01
2018-08-24T01:08:49.965Z,19.03
2018-08-24T01:11:18.461Z,19.03
2018-08-24T01:13:50.792Z,19.05
2018-08-24T01:16:24.896Z,19.08
2018-08-24T01:18:53.536Z,19.11
2018-08-24T01:21:22.000Z,19.13
2018-08-24T01:23:50.496Z,19.20
2018-08-24T01:26:23.912Z,19.20
2018-08-24T01:28:53.042Z,18.94
2018-08-24T01:31:21.727Z,19.20
2018-08-24T01:33:50.264Z,18.88
2018-08-24T01:36:18.775Z,19.24
2018-08-24T01:38:47.263Z,19.25
2018-08-24T01:41:15.718Z,19.29
2018-08-24T01:43:44.226Z,19.24
2018-08-24T01:46:14.124Z,19.30
2018-08-24T01:48:42.829Z,19.31
2018-08-24T01:51:11.317Z,19.34
2018-08-24T01:53:39.796Z,19.35
2018-08-24T01:56:08.259Z,19.40
2018-08-24T01:58:36.915Z,19.41
2018-08-24T02:01:05.472Z,19.42
2018-08-24T02:03:34.008Z,19.40
2018-08-24T02:06:06.452Z,19.33
2018-08-24T02:08:36.214Z,19.27
2018-08-24T02:11:08.905Z,19.24
2018-08-24T02:13:43.005Z,19.10
2018-08-24T02:16:11.559Z,19.00
2018-08-24T02:18:45.225Z,18.90
2018-08-24T02:21:19.217Z,18.86
2018-08-24T02:23:47.677Z,18.77
2018-08-24T02:26:16.128Z,18.66
2018-08-24T02:28:44.630Z,18.58
2018-08-24T02:31:13.185Z,18.41
2018-08-24T02:33:41.665Z,18.34
2018-08-24T02:36:11.008Z,18.20
2018-08-24T02:38:40.008Z,18.14
2018-08-24T02:41:08.505Z,18.12
2018-08-24T02:43:37.119Z,18.06
2018-08-24T02:46:05.634Z,18.02
2018-08-24T02:48:34.071Z,17.96
2018-08-24T02:51:02.603Z,17.93
2018-08-24T02:53:31.066Z,17.95
2018-08-24T02:55:59.647Z,17.89
2018-08-24T02:58:28.311Z,17.85
2018-08-24T03:00:56.765Z,17.80
2018-08-24T03:03:25.338Z,17.83
2018-08-24T03:05:53.816Z,17.83
2018-08-24T03:08:22.308Z,17.76
2018-08-24T03:10:50.754Z,17.63
2018-08-24T03:13:19.216Z,17.60
2018-08-24T03:15:47.696Z,17.62
2018-08-24T03:18:16.173Z,17.62
2018-08-24T03:20:44.660Z,17.63
2018-08-24T03:23:13.132Z,17.57
2018-08-24T03:25:41.608Z,17.48
2018-08-24T03:28:10.100Z,17.42
2018-08-24T03:30:38.684Z,17.30
2018-08-24T03:33:07.176Z,17.30
2018-08-24T03:35:35.762Z,17.26
2018-08-24T03:38:04.717Z,17.28
2018-08-24T03:40:33.366Z,17.16
2018-08-24T03:43:01.845Z,17.14
2018-08-24T03:45:30.403Z,17.13
2018-08-24T03:47:58.861Z,17.01
2018-08-24T03:50:27.307Z,17.08
2018-08-24T03:52:55.931Z,17.11
2018-08-24T03:55:24.333Z,17.12
2018-08-24T03:57:52.823Z,17.11
2018-08-24T04:00:21.594Z,17.11
2018-08-24T04:02:50.110Z,16.90
2018-08-24T04:05:18.583Z,17.17
2018-08-24T04:07:47.060Z,17.15
2018-08-24T04:10:30.262Z,17.15
2018-08-24T04:12:58.804Z,17.14
2018-08-24T04:15:27.312Z,17.15
2018-08-24T04:17:55.800Z,17.03
2018-08-24T04:20:24.750Z,16.98
2018-08-24T04:22:53.206Z,16.87
2018-08-24T04:25:21.716Z,16.73
2018-08-24T04:27:50.329Z,16.67
2018-08-24T04:30:18.816Z,16.66
2018-08-24T04:32:47.328Z,16.47
2018-08-24T04:35:15.838Z,16.40
2018-08-24T04:37:44.332Z,16.33
2018-08-24T04:40:12.875Z,16.29
2018-08-24T04:42:41.368Z,16.28
2018-08-24T04:45:09.848Z,16.27
2018-08-24T04:47:38.396Z,16.24
2018-08-24T04:50:06.936Z,16.24
2018-08-24T04:52:35.571Z,16.19
2018-08-24T04:55:04.117Z,16.20
2018-08-24T04:57:32.636Z,16.25
2018-08-24T05:00:01.093Z,16.23
2018-08-24T05:02:29.660Z,16.25
2018-08-24T05:04:58.103Z,16.19
2018-08-24T05:07:26.681Z,16.26
2018-08-24T05:09:55.163Z,16.30
2018-08-24T05:12:23.668Z,16.36
2018-08-24T05:14:52.172Z,16.39
2018-08-24T05:17:20.636Z,16.44
2018-08-24T05:19:49.238Z,16.50
2018-08-24T05:22:17.735Z,16.52
2018-08-24T05:24:46.284Z,16.40
2018-08-24T05:27:14.718Z,16.36
2018-08-24T05:29:43.253Z,16.47
2018-08-24T05:32:11.715Z,16.47
2018-08-24T05:34:40.206Z,16.50
2018-08-24T05:37:08.723Z,16.65
2018-08-24T05:39:37.357Z,16.65
2018-08-24T05:42:05.906Z,16.67
2018-08-24T05:44:34.398Z,16.63
2018-08-24T05:47:03.233Z,16.52
2018-08-24T05:49:31.684Z,16.46
2018-08-24T05:52:00.278Z,16.36
2018-08-24T05:54:28.823Z,16.29
2018-08-24T05:56:57.372Z,16.32
2018-08-24T05:59:25.881Z,16.35
2018-08-24T06:01:55.392Z,16.36
2018-08-24T06:04:23.989Z,16.37
2018-08-24T06:06:52.549Z,16.44
2018-08-24T06:09:21.154Z,16.41
2018-08-24T06:11:49.640Z,16.57
2018-08-24T06:14:18.176Z,16.49
2018-08-24T06:16:52.000Z,16.61
2018-08-24T06:19:21.300Z,16.63
2018-08-24T06:21:50.146Z,16.59
2018-08-24T06:24:18.945Z,16.61
2018-08-24T06:26:47.447Z,16.59
2018-08-24T06:29:16.091Z,16.59
2018-08-24T06:31:44.575Z,16.63
2018-08-24T06:34:13.272Z,16.59
2018-08-24T06:36:41.776Z,16.58
2018-08-24T06:39:12.450Z,16.53
2018-08-24T06:41:41.113Z,16.62
2018-08-24T06:44:09.779Z,16.67
2018-08-24T06:46:38.252Z,16.70
2018-08-24T06:49:06.792Z,16.83
2018-08-24T06:51:35.397Z,16.96
2018-08-24T06:54:04.052Z,17.07
2018-08-24T06:56:32.480Z,17.18
2018-08-24T06:59:01.029Z,17.20
2018-08-24T07:01:29.660Z,17.23
2018-08-24T07:03:58.846Z,17.29
2018-08-24T07:06:27.428Z,17.33
2018-08-24T07:08:55.916Z,17.53
2018-08-24T07:11:24.503Z,17.45
2018-08-24T07:13:53.090Z,17.43
2018-08-24T07:16:21.989Z,17.42
2018-08-24T07:18:50.532Z,17.36
2018-08-24T07:21:18.997Z,17.34
2018-08-24T07:23:47.484Z,17.41
2018-08-24T07:26:16.014Z,17.44
2018-08-24T07:28:44.495Z,17.53
2018-08-24T07:31:13.040Z,17.62
2018-08-24T07:33:41.531Z,17.58
2018-08-24T07:36:10.354Z,17.59
2018-08-24T07:38:38.990Z,17.71
2018-08-24T07:41:07.526Z,17.76
2018-08-24T07:43:36.103Z,17.82
2018-08-24T07:46:04.588Z,17.78
2018-08-24T07:48:33.040Z,17.82
2018-08-24T07:51:01.532Z,17.91
2018-08-24T07:53:30.032Z,18.00
2018-08-24T07:55:58.584Z,17.98
2018-08-24T07:58:27.124Z,17.94
2018-08-24T08:00:55.592Z,17.99
2018-08-24T08:03:24.156Z,18.07
2018-08-24T08:05:52.652Z,18.12
2018-08-24T08:08:21.112Z,18.21
2018-08-24T08:10:49.958Z,18.18
2018-08-24T08:13:18.436Z,18.10
2018-08-24T08:15:46.990Z,18.27
2018-08-24T08:18:15.613Z,18.33
2018-08-24T08:20:44.000Z,18.28
2018-08-24T08:23:12.503Z,18.35
2018-08-24T08:25:45.086Z,18.20
2018-08-24T08:28:13.570Z,18.10
2018-08-24T08:30:42.160Z,18.07
2018-08-24T08:33:10.892Z,18.04
2018-08-24T08:35:39.392Z,18.02
2018-08-24T08:38:09.031Z,18.00
2018-08-24T08:40:37.601Z,18.00
2018-08-24T08:43:06.341Z,18.01
2018-08-24T08:45:34.886Z,18.05
2018-08-24T08:48:03.446Z,18.01
2018-08-24T08:50:32.004Z,18.10
2018-08-24T08:53:00.543Z,18.04
2018-08-24T08:55:29.288Z,18.09
2018-08-24T08:57:57.958Z,18.10
2018-08-24T09:00:26.611Z,18.23
2018-08-24T09:02:55.334Z,18.23
2018-08-24T09:05:24.244Z,18.17
2018-08-24T09:07:54.365Z,18.07
2018-08-24T09:10:23.193Z,18.01
2018-08-24T09:12:52.186Z,17.88
2018-08-24T09:15:20.783Z,17.88
2018-08-24T09:17:54.794Z,17.90
2018-08-24T09:20:32.103Z,17.88
2018-08-24T09:23:10.486Z,17.83
2018-08-24T09:25:48.595Z,17.84
2018-08-24T09:28:18.652Z,17.85
2018-08-24T09:30:56.840Z,17.68
2018-08-24T09:33:30.384Z,17.77
2018-08-24T09:36:07.810Z,17.78
2018-08-24T09:38:39.855Z,17.83
2018-08-24T09:41:15.059Z,17.85
2018-08-24T09:43:55.176Z,17.86
2018-08-24T09:46:29.308Z,17.99
2018-08-24T09:49:03.280Z,17.97
2018-08-24T09:51:32.881Z,18.07
2018-08-24T09:54:04.018Z,17.99
2018-08-24T09:56:33.426Z,18.07
2018-08-24T09:59:02.427Z,18.13
2018-08-24T10:01:36.290Z,18.09
2018-08-24T10:04:10.119Z,18.09
2018-08-24T10:06:44.119Z,18.23
2018-08-24T10:09:13.942Z,18.27
2018-08-24T10:11:42.521Z,18.29
2018-08-24T10:14:11.445Z,18.26
2018-08-24T10:16:40.461Z,18.47
2018-08-24T10:19:12.367Z,18.56
2018-08-24T10:21:41.110Z,18.69
2018-08-24T10:24:09.954Z,18.76
2018-08-24T10:26:40.138Z,18.70
2018-08-24T10:29:09.151Z,18.64
2018-08-24T10:31:37.893Z,18.62
2018-08-24T10:34:06.676Z,18.75
2018-08-24T10:36:35.776Z,19.18
2018-08-24T10:39:06.612Z,19.71
2018-08-24T10:41:35.268Z,20.11
2018-08-24T10:44:04.717Z,20.29
2018-08-24T10:46:33.260Z,20.30
2018-08-24T10:49:01.954Z,20.24
2018-08-24T10:51:30.466Z,19.98
2018-08-24T10:53:59.353Z,20.03
2018-08-24T10:56:28.006Z,19.88
2018-08-24T10:58:56.936Z,19.73
2018-08-24T11:01:25.586Z,19.76
2018-08-24T11:03:54.131Z,19.90
2018-08-24T11:06:22.689Z,19.80
2018-08-24T11:08:51.272Z,19.48
2018-08-24T11:11:19.774Z,19.52
2018-08-24T11:13:48.659Z,20.10
2018-08-24T11:16:17.534Z,20.76
2018-08-24T11:18:46.192Z,21.17
2018-08-24T11:21:14.767Z,21.02
2018-08-24T11:23:43.595Z,21.06
2018-08-24T11:26:12.282Z,21.22
2018-08-24T11:28:41.126Z,21.37
2018-08-24T11:31:10.033Z,21.36
2018-08-24T11:33:38.728Z,21.51
2018-08-24T11:36:07.523Z,21.76
2018-08-24T11:38:36.049Z,21.62
2018-08-24T11:41:04.696Z,21.77
2018-08-24T11:43:33.651Z,21.78
2018-08-24T11:46:02.346Z,22.08
2018-08-24T11:48:30.876Z,22.07
2018-08-24T11:51:00.450Z,22.24
2018-08-24T11:53:29.526Z,22.22
2018-08-24T11:55:58.149Z,22.26
2018-08-24T11:58:26.797Z,22.30
2018-08-24T12:00:55.333Z,22.58
2018-08-24T12:03:23.919Z,22.80
2018-08-24T12:05:52.499Z,22.62
2018-08-24T12:08:21.174Z,22.35
2018-08-24T12:10:49.681Z,21.66
2018-08-24T12:13:18.272Z,21.14
2018-08-24T12:15:46.889Z,21.28
2018-08-24T12:18:15.451Z,21.77
2018-08-24T12:20:44.365Z,22.02
2018-08-24T12:23:12.944Z,22.27
2018-08-24T12:25:41.781Z,22.48
2018-08-24T12:28:10.521Z,22.58
2018-08-24T12:30:39.209Z,22.39
2018-08-24T12:33:07.808Z,22.31
2018-08-24T12:35:36.331Z,21.88
2018-08-24T12:38:05.454Z,22.20
2018-08-24T12:40:34.041Z,22.79
2018-08-24T12:43:02.757Z,22.28
2018-08-24T12:45:31.272Z,21.72
2018-08-24T12:47:59.820Z,21.81
2018-08-24T12:50:28.436Z,21.98
2018-08-24T12:52:57.020Z,21.92
2018-08-24T12:55:25.710Z,21.64
2018-08-24T12:57:54.254Z,21.53
2018-08-24T13:00:22.821Z,21.55
2018-08-24T13:02:51.480Z,21.55
2018-08-24T13:05:20.440Z,21.81
2018-08-24T13:07:49.071Z,21.90
2018-08-24T13:10:17.664Z,22.03
2018-08-24T13:12:46.209Z,22.03
2018-08-24T13:15:14.894Z,22.16
2018-08-24T13:17:43.601Z,22.27
2018-08-24T13:20:12.642Z,22.38
2018-08-24T13:22:41.263Z,22.31
2018-08-24T13:25:10.157Z,22.16
2018-08-24T13:27:38.789Z,21.82
2018-08-24T13:30:07.474Z,21.41
2018-08-24T13:32:36.076Z,21.03
2018-08-24T13:35:04.669Z,20.82
2018-08-24T13:37:33.164Z,20.72
2018-08-24T13:40:01.724Z,20.49
2018-08-24T13:42:30.350Z,19.73
2018-08-24T13:44:58.857Z,19.15
2018-08-24T13:47:27.705Z,18.43
2018-08-24T13:49:56.175Z,17.77
2018-08-24T13:52:24.738Z,17.45
2018-08-24T13:54:53.381Z,17.28
2018-08-24T13:57:21.884Z,17.34
2018-08-24T13:59:50.781Z,17.63
2018-08-24T14:02:19.465Z,18.09
2018-08-24T14:04:48.015Z,18.38
2018-08-24T14:07:16.580Z,18.65
2018-08-24T14:09:45.084Z,18.78
2018-08-24T14:12:14.055Z,18.80
2018-08-24T14:14:44.149Z,19.11
2018-08-24T14:17:12.827Z,19.55
2018-08-24T14:19:41.882Z,19.62
2018-08-24T14:22:10.431Z,19.95
2018-08-24T14:24:38.991Z,20.19
2018-08-24T14:27:07.580Z,20.06
2018-08-24T14:29:36.149Z,19.89
2018-08-24T14:32:04.768Z,20.10
2018-08-24T14:34:33.272Z,20.57
2018-08-24T14:37:02.154Z,20.73
2018-08-24T14:39:30.944Z,20.93
2018-08-24T14:41:59.516Z,21.10
2018-08-24T14:44:28.431Z,20.87
2018-08-24T14:46:57.017Z,20.52
2018-08-24T14:49:25.648Z,19.93
2018-08-24T14:51:54.285Z,19.64
2018-08-24T14:54:22.868Z,19.85
2018-08-24T14:56:51.505Z,20.23
2018-08-24T14:59:20.056Z,20.55
2018-08-24T15:01:48.613Z,20.40
2018-08-24T15:04:17.238Z,20.41
2018-08-24T15:06:45.838Z,20.35
2018-08-24T15:09:14.423Z,20.22
2018-08-24T15:11:43.022Z,20.06
2018-08-24T15:14:11.969Z,20.03
2018-08-24T15:16:40.524Z,19.95
2018-08-24T15:19:09.200Z,19.79
2018-08-24T15:21:37.707Z,19.76
2018-08-24T15:24:06.385Z,19.88
2018-08-24T15:26:34.860Z,19.82
2018-08-24T15:29:03.408Z,19.80
2018-08-24T15:31:31.959Z,19.87
2018-08-24T15:34:00.393Z,19.80
2018-08-24T15:36:28.909Z,19.70
2018-08-24T15:38:57.412Z,19.78
2018-08-24T15:41:25.887Z,19.62
2018-08-24T15:43:54.377Z,19.59
2018-08-24T15:46:22.867Z,19.48
2018-08-24T15:48:51.355Z,19.39
2018-08-24T15:51:19.868Z,19.30
2018-08-24T15:53:48.333Z,19.40
2018-08-24T15:56:16.876Z,19.46
2018-08-24T15:58:45.340Z,19.51
2018-08-24T16:01:13.798Z,19.63
2018-08-24T16:03:42.296Z,19.61
2018-08-24T16:06:10.820Z,19.60
2018-08-24T16:08:39.336Z,19.60
2018-08-24T16:11:07.823Z,19.58
2018-08-24T16:13:36.275Z,19.53
2018-08-24T16:16:05.128Z,19.55
2018-08-24T16:18:33.596Z,19.61
2018-08-24T16:21:02.157Z,19.64
2018-08-24T16:23:30.807Z,19.48
2018-08-24T16:25:59.288Z,19.38
2018-08-24T16:28:28.125Z,19.36
2018-08-24T16:30:56.818Z,19.26
2018-08-24T16:33:25.372Z,19.21
2018-08-24T16:35:55.014Z,19.19
2018-08-24T16:38:23.671Z,19.18
2018-08-24T16:40:52.248Z,19.05
2018-08-24T16:43:20.796Z,19.03
2018-08-24T16:45:49.843Z,19.04
2018-08-24T16:48:18.318Z,18.96
2018-08-24T16:50:46.784Z,18.90
2018-08-24T16:53:15.265Z,18.81
2018-08-24T16:55:43.718Z,18.81
2018-08-24T16:58:12.383Z,18.84
2018-08-24T17:00:40.784Z,18.83
2018-08-24T17:03:09.262Z,18.72
2018-08-24T17:05:37.704Z,18.74
2018-08-24T17:08:06.495Z,18.70
2018-08-24T17:10:35.041Z,18.67
2018-08-24T17:13:03.506Z,18.64
2018-08-24T17:15:32.038Z,18.76
2018-08-24T17:18:00.472Z,18.57
2018-08-24T17:20:29.013Z,18.50
2018-08-24T17:22:57.480Z,18.43
2018-08-24T17:25:26.005Z,18.39
2018-08-24T17:27:54.513Z,18.40
2018-08-24T17:30:23.016Z,18.44
2018-08-24T17:32:51.441Z,18.38
2018-08-24T17:35:19.903Z,18.34
2018-08-24T17:37:48.373Z,18.29
2018-08-24T17:40:16.863Z,18.19
2018-08-24T17:42:45.644Z,18.14
2018-08-24T17:45:14.120Z,18.13
2018-08-24T17:47:42.564Z,18.04
2018-08-24T17:50:11.051Z,18.07
2018-08-24T17:52:39.551Z,18.04
2018-08-24T17:55:08.503Z,18.02
2018-08-24T17:57:37.016Z,17.97
2018-08-24T18:00:05.611Z,17.96
2018-08-24T18:02:34.127Z,17.90
2018-08-24T18:05:02.596Z,17.93
2018-08-24T18:07:31.120Z,17.92
2018-08-24T18:09:59.600Z,17.90
2018-08-24T18:12:28.068Z,17.88
2018-08-24T18:14:56.706Z,17.80
2018-08-24T18:17:25.123Z,17.72
2018-08-24T18:19:54.445Z,17.49
2018-08-24T18:22:22.930Z,16.56
2018-08-24T18:24:51.399Z,15.81
2018-08-24T18:27:19.851Z,15.21
2018-08-24T18:29:48.319Z,14.76
2018-08-24T18:32:17.108Z,14.66
2018-08-24T18:34:45.623Z,14.52
2018-08-24T18:37:14.148Z,14.39
2018-08-24T18:39:42.619Z,14.31
2018-08-24T18:42:11.127Z,14.30
2018-08-24T18:44:39.616Z,14.28
2018-08-24T18:47:08.093Z,14.32
2018-08-24T18:49:36.664Z,14.41
2018-08-24T18:52:05.227Z,14.32
2018-08-24T18:54:33.749Z,14.28
2018-08-24T18:57:02.276Z,14.23
2018-08-24T18:59:30.703Z,14.23
2018-08-24T19:01:59.170Z,14.11
2018-08-24T19:04:27.680Z,14.03
2018-08-24T19:06:56.158Z,14.02
2018-08-24T19:09:24.625Z,13.94
2018-08-24T19:11:58.398Z,13.99
2018-08-24T19:14:26.861Z,14.02
2018-08-24T19:16:55.309Z,14.12
2018-08-24T19:19:28.975Z,14.10
2018-08-24T19:22:03.533Z,14.09
2018-08-24T19:24:32.074Z,14.03
2018-08-24T19:27:00.499Z,14.10
2018-08-24T19:29:34.363Z,14.00
2018-08-24T19:32:03.039Z,13.99
2018-08-24T19:34:31.574Z,13.98
2018-08-24T19:37:00.050Z,13.95
2018-08-24T19:39:28.654Z,13.99
2018-08-24T19:42:02.459Z,13.98
2018-08-24T19:44:30.916Z,14.01
2018-08-24T19:46:59.536Z,13.95
2018-08-24T19:49:28.146Z,14.02
2018-08-24T19:51:56.536Z,13.96
2018-08-24T19:54:25.016Z,13.93
2018-08-24T19:56:53.473Z,13.89
2018-08-24T19:59:21.969Z,13.88
2018-08-24T20:01:50.408Z,13.88
2018-08-24T20:04:19.183Z,13.87
2018-08-24T20:06:52.951Z,13.87
2018-08-24T20:09:26.650Z,13.91
2018-08-24T20:11:55.108Z,13.95
2018-08-24T20:14:28.873Z,13.90
2018-08-24T20:17:02.498Z,13.87
2018-08-24T20:19:31.047Z,13.82
2018-08-24T20:21:59.501Z,13.79
2018-08-24T20:24:28.109Z,13.69
2018-08-24T20:26:56.925Z,13.66
2018-08-24T20:29:25.353Z,13.64
2018-08-24T20:31:53.887Z,13.62
2018-08-24T20:34:22.365Z,13.63
2018-08-24T20:36:50.798Z,13.70
2018-08-24T20:39:19.379Z,13.67
2018-08-24T20:41:47.845Z,13.60
2018-08-24T20:44:16.276Z,13.53
2018-08-24T20:46:44.760Z,13.59
2018-08-24T20:49:13.241Z,13.56
2018-08-24T20:51:41.768Z,13.60
2018-08-24T20:54:10.248Z,13.57
2018-08-24T20:56:38.721Z,13.52
2018-08-24T20:59:07.242Z,13.57
2018-08-24T21:01:35.709Z,13.54
2018-08-24T21:04:04.279Z,13.51
2018-08-24T21:06:32.714Z,13.48
2018-08-24T21:09:01.128Z,13.49
2018-08-24T21:11:29.771Z,13.48
2018-08-24T21:13:58.250Z,13.58
2018-08-24T21:16:26.694Z,13.52
2018-08-24T21:18:55.175Z,13.45
2018-08-24T21:21:23.657Z,13.38
2018-08-24T21:23:52.161Z,13.35
2018-08-24T21:26:20.617Z,13.31
2018-08-24T21:28:49.137Z,13.33
2018-08-24T21:31:17.580Z,13.31
2018-08-24T21:33:46.188Z,13.26
2018-08-24T21:36:14.690Z,13.12
2018-08-24T21:38:43.845Z,13.09
2018-08-24T21:41:12.383Z,13.12
2018-08-24T21:43:40.857Z,13.08
2018-08-24T21:46:09.388Z,13.01
2018-08-24T21:48:38.037Z,12.97
2018-08-24T21:51:06.572Z,12.91
2018-08-24T21:53:35.084Z,12.64
2018-08-24T21:56:03.529Z,12.82
2018-08-24T21:58:32.003Z,12.76
2018-08-24T22:01:00.514Z,12.69
2018-08-24T22:03:29.092Z,12.66
2018-08-24T22:05:57.602Z,12.67
2018-08-24T22:08:26.055Z,12.57
2018-08-24T22:10:54.508Z,12.55
2018-08-24T22:13:22.984Z,12.51
2018-08-24T22:15:51.464Z,12.55
2018-08-24T22:18:19.912Z,12.54
2018-08-24T22:20:48.369Z,12.53
2018-08-24T22:23:17.265Z,12.49
2018-08-24T22:25:45.732Z,12.39
2018-08-24T22:28:14.176Z,12.34
2018-08-24T22:30:42.643Z,12.40
2018-08-24T22:33:11.108Z,12.42
2018-08-24T22:35:39.659Z,12.47
2018-08-24T22:38:08.122Z,12.43
2018-08-24T22:40:36.589Z,12.32
2018-08-24T22:43:08.188Z,12.26
2018-08-24T22:45:36.648Z,12.32
2018-08-24T22:48:05.529Z,12.23
2018-08-24T22:50:33.975Z,12.25
2018-08-24T22:53:02.543Z,12.14
2018-08-24T22:55:31.004Z,12.13
2018-08-24T22:57:59.447Z,12.02
2018-08-24T23:00:27.987Z,11.91
2018-08-24T23:02:56.447Z,11.88
2018-08-24T23:05:24.904Z,11.87
2018-08-24T23:07:53.367Z,11.82
2018-08-24T23:10:21.864Z,11.84
2018-08-24T23:12:50.320Z,11.81
2018-08-24T23:15:18.797Z,11.91
2018-08-24T23:17:47.270Z,12.05
2018-08-24T23:20:16.083Z,12.03
2018-08-24T23:22:44.543Z,11.87
2018-08-24T23:25:13.027Z,11.68
2018-08-24T23:27:41.500Z,11.69
2018-08-24T23:30:10.098Z,11.58
2018-08-24T23:32:38.600Z,11.60
2018-08-24T23:35:07.108Z,11.64
2018-08-24T23:37:35.596Z,11.65
2018-08-24T23:40:04.116Z,11.67
2018-08-24T23:42:32.601Z,11.66
2018-08-24T23:45:01.076Z,11.74
2018-08-24T23:47:29.618Z,11.71
2018-08-24T23:49:58.135Z,11.58
2018-08-24T23:52:26.563Z,11.45
2018-08-24T23:54:55.005Z,11.38
2018-08-24T23:57:23.476Z,11.41
2018-08-24T23:59:51.956Z,11.41
